Have a Safe July 4th! 

Flight Track Log - Related Links

Times and Time Zones

All times are in EDT time to prevent confusion due to time zone crossing. See the N910JD flight status page for this flight to view local times or setup timezone preferences in your user account.

Time Position Orientation Groundspeed Altitude Reporting Facility
EDT Latitude Longitude Course Direction KTS MPH feet Rate Location/Type
Mon 04:13:06 PM 36.3247 -94.1869 257° West 213 245 6,500  Level Kansas City Center
Mon 04:13:21 PM 36.3222 -94.2131 263° West 206 237 7,100 3,040 Climbing Memphis Center
Mon 04:14:21 PM 36.3150 -94.3053 264° West 241 277 10,300 2,600 Climbing Memphis Center
Mon 04:15:21 PM 36.3097 -94.4081 266° West 269 310 12,300 2,200 Climbing Memphis Center
Mon 04:16:21 PM 36.2994 -94.5261 264° West 319 367 14,700 2,050 Climbing Memphis Center
Mon 04:17:00 PM 36.2838 -94.9122 262° West  Level FlightAware Approximate
Mon 04:17:21 PM 36.2911 -94.6517 265° West 339 390 16,400  Level Memphis Center
Mon 04:18:16 PM 36.2833 -94.7461 264° West 369 425 17,800 2,051 Climbing Kansas City Center
Mon 04:19:18 PM 36.2700 -94.9025 264° West 377 434 20,400 2,032 Climbing Kansas City Center
Mon 04:20:20 PM 36.2583 -95.0347 264° West 382 440 22,000 1,548 Climbing Kansas City Center
Mon 04:21:22 PM 36.2486 -95.1589 264° West 386 444 23,600 1,500 Climbing Kansas City Center
Mon 04:22:24 PM 36.2372 -95.2953 264° West 394 453 25,100 1,645 Climbing Kansas City Center
Mon 04:23:26 PM 36.2267 -95.4336 265° West 402 463 27,000 2,177 Climbing Kansas City Center
Mon 04:24:28 PM 36.2119 -95.5972 264° West 400 460 29,600 2,032 Climbing Kansas City Center
Mon 04:25:30 PM 36.2008 -95.7328 264° West 398 458 31,200 1,161 Climbing Kansas City Center
Mon 04:26:32 PM 36.1953 -95.8628 267° West 398 458 32,000 774 Climbing Kansas City Center
Mon 04:27:34 PM 36.1961 -96.0106 270° West 420 483 32,800 1,113 Climbing Kansas City Center
Mon 04:28:36 PM 36.1961 -96.1544 270° West 421 484 34,300 1,548 Climbing Kansas City Center
Mon 04:29:38 PM 36.1967 -96.3250 270° West 414 476 36,000 823 Climbing Kansas City Center
Mon 04:30:40 PM 36.1950 -96.4669 269° West 413 475 36,000  Level Kansas City Center
Mon 04:31:42 PM 36.1939 -96.6131 270° West 420 483 36,000  Level Kansas City Center
Mon 04:32:44 PM 36.1928 -96.7622 270° West 426 490 36,000  Level Kansas City Center
Mon 04:33:46 PM 36.1928 -96.9078 270° West 427 491 36,000  Level Kansas City Center
Mon 04:34:48 PM 36.1903 -97.0542 269° West 427 491 36,000  Level Kansas City Center
Mon 04:35:50 PM 36.1900 -97.2300 270° West 428 493 36,000  Level Kansas City Center
Mon 04:36:52 PM 36.1878 -97.3764 269° West 428 493 36,000  Level Kansas City Center
Mon 04:37:54 PM 36.1853 -97.5219 269° West 428 493 36,000  Level Kansas City Center
Mon 04:38:56 PM 36.1828 -97.6678 269° West 427 491 36,000  Level Kansas City Center
Mon 04:39:58 PM 36.1806 -97.8125 269° West 424 488 36,000  Level Kansas City Center
Mon 04:41:00 PM 36.1781 -97.9858 269° West 423 487 36,000  Level Kansas City Center
Mon 04:42:02 PM 36.1750 -98.1153 268° West 423 487 36,000  Level Kansas City Center
Mon 04:43:04 PM 36.1722 -98.2614 269° West 423 487 36,000  Level Kansas City Center
Mon 04:44:06 PM 36.1689 -98.4342 269° West 420 483 36,000  Level Kansas City Center
Mon 04:45:08 PM 36.1653 -98.5789 268° West 420 483 36,000  Level Kansas City Center
Mon 04:46:10 PM 36.1617 -98.7222 268° West 418 481 36,000  Level Kansas City Center
Mon 04:47:12 PM 36.1583 -98.8786 269° West 419 482 36,000  Level Kansas City Center
Mon 04:48:14 PM 36.1544 -99.0217 268° West 418 481 36,000  Level Kansas City Center
Mon 04:49:16 PM 36.1514 -99.1633 269° West 416 479 36,000  Level Kansas City Center
Mon 04:50:19 PM 36.1467 -99.3067 268° West 417 480 36,000  Level Kansas City Center
Mon 04:51:21 PM 36.1425 -99.4592 268° West 417 480 36,000  Level Kansas City Center
Mon 04:52:23 PM 36.1381 -99.5994 268° West 413 475 36,000  Level Kansas City Center
Mon 04:53:25 PM 36.1328 -99.7419 267° West 414 476 36,000  Level Kansas City Center
Mon 04:54:27 PM 36.1264 -99.9142 267° West 417 480 36,000  Level Kansas City Center
Mon 04:55:29 PM 36.1214 -100.0569 268° West 416 479 36,000  Level Kansas City Center
Mon 04:56:31 PM 36.1169 -100.2000 268° West 415 478 36,000  Level Kansas City Center
Mon 04:56:54 PM 36.1153 -100.2572 268° West 416 479 36,000  Level Albuquerque Center
Mon 04:57:55 PM 36.1092 -100.3981 267° West 414 476 36,000  Level Albuquerque Center
Mon 04:58:57 PM 36.1033 -100.5408 267° West 414 476 36,000  Level Albuquerque Center
Mon 04:59:59 PM 36.0994 -100.6817 268° West 412 474 36,000  Level Albuquerque Center
Mon 05:01:01 PM 36.0931 -100.8233 267° West 412 474 36,000  Level Albuquerque Center
Mon 05:02:03 PM 36.0869 -100.9628 267° West 409 471 36,000  Level Albuquerque Center
Mon 05:03:05 PM 36.0797 -101.1333 267° West 413 475 36,000  Level Albuquerque Center
Mon 05:04:07 PM 36.0742 -101.2669 267° West 408 470 36,000  Level Albuquerque Center
Mon 05:05:09 PM 36.0683 -101.4086 267° West 412 474 36,000  Level Albuquerque Center
Mon 05:06:11 PM 36.0608 -101.5481 266° West 413 475 36,000  Level Albuquerque Center
Mon 05:07:13 PM 36.0531 -101.7147 267° West 408 470 36,000  Level Albuquerque Center
Mon 05:08:15 PM 36.0458 -101.8508 266° West 404 465 36,000  Level Albuquerque Center
Mon 05:09:17 PM 36.0397 -101.9922 267° West 411 473 36,000  Level Albuquerque Center
Mon 05:10:19 PM 36.0311 -102.1319 266° West 412 474 36,000  Level Albuquerque Center
Mon 05:11:21 PM 36.0242 -102.2714 267° West 411 473 36,000  Level Albuquerque Center
Mon 05:12:23 PM 36.0164 -102.4114 266° West 411 473 36,000  Level Albuquerque Center
Mon 05:13:25 PM 36.0078 -102.5808 266° West 413 475 36,000  Level Albuquerque Center
Mon 05:14:27 PM 35.9989 -102.7211 266° West 414 476 36,000  Level Albuquerque Center
Mon 05:15:29 PM 35.9911 -102.8625 266° West 414 476 36,000  Level Albuquerque Center
Mon 05:16:31 PM 35.9828 -103.0136 266° West 412 474 36,000  Level Albuquerque Center
Mon 05:17:33 PM 35.9739 -103.1569 266° West 415 478 36,000  Level Albuquerque Center
Mon 05:18:35 PM 35.9653 -103.2992 266° West 413 475 36,000  Level Albuquerque Center
Mon 05:19:36 PM 35.9561 -103.4414 265° West 414 476 36,000  Level Albuquerque Center
Mon 05:20:38 PM 35.9464 -103.5842 265° West 416 479 36,000  Level Albuquerque Center
Mon 05:21:40 PM 35.9364 -103.7497 266° West 413 475 36,000  Level Albuquerque Center
Mon 05:22:42 PM 35.9269 -103.8931 265° West 416 479 36,000  Level Albuquerque Center
Mon 05:23:44 PM 35.9172 -104.0369 265° West 418 481 36,000  Level Albuquerque Center
Mon 05:24:46 PM 35.9067 -104.1811 265° West 419 482 36,000  Level Albuquerque Center
Mon 05:25:48 PM 35.8964 -104.3256 265° West 421 484 36,000  Level Albuquerque Center
Mon 05:26:50 PM 35.8867 -104.4692 265° West 421 484 36,000  Level Albuquerque Center
Mon 05:27:52 PM 35.8753 -104.6125 264° West 419 482 36,000  Level Albuquerque Center
Mon 05:28:54 PM 35.8636 -104.7792 265° West 418 481 36,000  Level Albuquerque Center
Mon 05:29:56 PM 35.8525 -104.9228 265° West 418 481 36,000  Level Albuquerque Center
Mon 05:30:58 PM 35.8403 -105.0664 264° West 419 482 36,000 49 Level Albuquerque Center
Mon 05:31:59 PM 35.8308 -105.2092 265° West 418 481 36,100  Climbing Albuquerque Center
Mon 05:33:01 PM 35.8181 -105.3531 264° West 419 482 36,000 -48 Descending Albuquerque Center
Mon 05:34:03 PM 35.8061 -105.4969 264° West 420 483 36,000  Level Albuquerque Center
Mon 05:35:05 PM 35.7961 -105.6314 265° West 420 483 36,000  Level Albuquerque Center
Mon 05:36:07 PM 35.7822 -105.8022 264° West 420 483 36,000  Level Albuquerque Center
Mon 05:37:09 PM 35.7703 -105.9439 264° West 418 481 36,000  Level Albuquerque Center
Mon 05:38:11 PM 35.7581 -106.0872 264° West 420 483 36,000  Level Albuquerque Center
Mon 05:39:12 PM 35.7456 -106.2461 265° West 423 487 36,000  Level Albuquerque Center
Mon 05:40:14 PM 35.7336 -106.3836 264° West 423 487 36,000  Level Albuquerque Center
Mon 05:41:16 PM 35.7183 -106.5450 263° West 425 489 36,000  Level Albuquerque Center
Mon 05:42:18 PM 35.7069 -106.6825 264° West 423 487 36,000  Level Albuquerque Center
Mon 05:43:20 PM 35.6917 -106.8431 263° West 424 488 36,000  Level Albuquerque Center
Mon 05:44:21 PM 35.6786 -106.9814 263° West 425 489 36,000  Level Albuquerque Center
Mon 05:45:23 PM 35.6661 -107.1192 264° West 424 488 36,000  Level Albuquerque Center
Mon 05:46:25 PM 35.6514 -107.2797 264° West 423 487 36,000  Level Albuquerque Center
Mon 05:47:27 PM 35.6386 -107.4192 264° West 427 491 36,000  Level Albuquerque Center
Mon 05:48:29 PM 35.6219 -107.5814 263° West 428 493 36,000  Level Albuquerque Center
Mon 05:49:30 PM 35.6081 -107.7200 263° West 428 493 36,000  Level Albuquerque Center
Mon 05:50:32 PM 35.5922 -107.8842 263° West 430 495 36,000  Level Albuquerque Center
Mon 05:51:34 PM 35.5778 -108.0250 263° West 432 497 36,000  Level Albuquerque Center
Mon 05:52:36 PM 35.5633 -108.1653 263° West 433 498 36,000  Level Albuquerque Center
Mon 05:53:38 PM 35.5467 -108.3283 263° West 431 496 36,000  Level Albuquerque Center
Mon 05:54:40 PM 35.5308 -108.4692 262° West 433 498 36,000  Level Albuquerque Center
Mon 05:55:41 PM 35.5136 -108.6339 263° West 433 498 36,000  Level Albuquerque Center
Mon 05:56:43 PM 35.4989 -108.7739 263° West 432 497 36,000  Level Albuquerque Center
Mon 05:57:45 PM 35.4814 -108.9389 263° West 433 498 36,000  Level Albuquerque Center
Mon 05:58:47 PM 35.4653 -109.0817 262° West 436 502 36,000  Level Albuquerque Center
Mon 05:59:49 PM 35.4497 -109.2236 262° West 437 503 36,000  Level Albuquerque Center
Mon 06:00:51 PM 35.4294 -109.3881 261° West 436 502 36,000  Level Albuquerque Center
Mon 06:01:52 PM 35.4136 -109.5311 262° West 439 505 36,000  Level Albuquerque Center
Mon 06:02:54 PM 35.3939 -109.6964 262° West 441 507 36,000  Level Albuquerque Center
Mon 06:03:56 PM 35.3778 -109.8378 262° West 439 505 36,000  Level Albuquerque Center
Mon 06:04:58 PM 35.3564 -110.0017 261° West 436 502 36,000  Level Albuquerque Center
Mon 06:06:00 PM 35.3383 -110.1444 261° West 441 507 36,000  Level Albuquerque Center
Mon 06:07:01 PM 35.3203 -110.2850 261° West 439 505 36,000 -634 Level Albuquerque Center
Mon 06:08:03 PM 35.3003 -110.4514 262° West 441 507 34,700 -1,210 Descending Albuquerque Center
Mon 06:09:05 PM 35.2817 -110.5936 261° West 442 509 33,500 -1,210 Descending Albuquerque Center
Mon 06:10:07 PM 35.2606 -110.7589 261° West 441 507 32,200 -1,306 Descending Albuquerque Center
Mon 06:11:09 PM 35.2061 -110.8856 242° Southwest 450 518 30,800 -1,073 Descending Albuquerque Center
Mon 06:12:10 PM 35.1056 -111.0033 224° Southwest 448 516 30,000 -634 Descending Albuquerque Center
Mon 06:13:12 PM 35.0222 -111.0867 219° Southwest 451 519 29,500 -1,016 Descending Albuquerque Center
Mon 06:14:14 PM 34.9047 -111.2133 221° Southwest 468 539 27,900 -1,597 Descending Albuquerque Center
Mon 06:15:16 PM 34.8044 -111.3150 220° Southwest 470 541 26,200 -1,707 Descending Albuquerque Center
Mon 06:16:17 PM 34.7081 -111.4142 220° Southwest 461 531 24,400 -2,537 Descending Albuquerque Center
Mon 06:17:19 PM 34.6181 -111.5042 219° Southwest 433 498 21,000 -2,806 Descending Albuquerque Center
Mon 06:18:21 PM 34.5322 -111.5906 220° Southwest 412 474 18,600 -2,129 Descending Albuquerque Center
Mon 06:19:23 PM 34.4531 -111.6686 219° Southwest 381 438 16,600 -1,902 Descending Albuquerque Center
Mon 06:20:24 PM 34.3750 -111.7475 220° Southwest 370 426 14,700 -1,951 Descending Albuquerque Center
Mon 06:21:26 PM 34.2853 -111.8358 219° Southwest 356 410 12,600 -1,790 Descending Albuquerque Center
Mon 06:22:28 PM 34.2203 -111.8967 218° Southwest 310 357 11,000 -871 Descending Albuquerque Center
Mon 06:23:30 PM 34.1472 -111.9247 198° South 283 326 10,800 -829 Descending Albuquerque Center
Mon 06:24:31 PM 34.0669 -111.9292 183° South 291 335 9,300 -1,415 Descending Albuquerque Center
Mon 06:25:33 PM 33.9925 -111.9328 182° South 275 316 7,900 -1,548 Descending Albuquerque Center
Mon 06:26:35 PM 33.9050 -111.9203 173° South 268 308 6,100 -1,355 Descending Albuquerque Center
Mon 06:27:37 PM 33.8333 -111.9053 170° South 266 306 5,100 -683 Descending Albuquerque Center
Mon 06:28:38 PM 33.7733 -111.8897 168° South 222 255 4,700 -683 Descending Albuquerque Center
Mon 06:29:40 PM 33.7169 -111.8789 171° South 208 239 3,700 -968 Descending Albuquerque Center
Mon 06:30:42 PM 33.6653 -111.8744 176° South 195 224 2,700 -1,073 Descending Albuquerque Center
Mon 06:31:43 PM 33.6308 -111.9022 214° Southwest 158 182 1,500 -1,180 Descending Albuquerque Center
Mon 06:33:00 PM 33.6229 -111.9105 189° South  Level Estimated

Login

Don't have an account? Register now (free) for customized features, flight alerts, and more!